createdAt,value
2022-11-28T00:09:30.156Z,101436.77
2022-11-28T00:19:33.231Z,101433.10
2022-11-28T00:29:36.323Z,101428.08
2022-11-28T00:39:39.337Z,101423.33
2022-11-28T00:49:42.629Z,101423.20
2022-11-28T00:59:45.717Z,101417.59
2022-11-28T01:09:48.835Z,101418.83
2022-11-28T01:19:51.961Z,101415.16
2022-11-28T01:29:55.112Z,101407.98
2022-11-28T01:39:58.588Z,101403.14
2022-11-28T01:50:04.284Z,101388.42
2022-11-28T02:00:17.038Z,101380.01
2022-11-28T02:10:32.804Z,101368.82
2022-11-28T02:20:54.418Z,101361.31
2022-11-28T02:31:28.908Z,101353.59
2022-11-28T02:41:40.794Z,101349.20
2022-11-28T02:52:06.415Z,101336.02
2022-11-28T03:02:15.628Z,101335.85
2022-11-28T03:12:36.903Z,101333.00
2022-11-28T03:22:58.962Z,101325.83
2022-11-28T03:33:04.302Z,101328.04
2022-11-28T03:43:13.868Z,101322.65
2022-11-28T03:53:23.104Z,101327.23
2022-11-28T04:03:38.385Z,101321.07
2022-11-28T04:13:50.191Z,101322.44
2022-11-28T04:23:56.619Z,101321.30
2022-11-28T04:34:04.072Z,101316.61
2022-11-28T04:44:16.120Z,101314.54
2022-11-28T04:54:26.619Z,101316.27
2022-11-28T05:04:29.777Z,101313.30
2022-11-28T05:14:32.903Z,101308.40
2022-11-28T05:24:36.015Z,101310.63
2022-11-28T05:34:39.505Z,101306.61
2022-11-28T05:44:42.786Z,101305.71
2022-11-28T05:54:45.780Z,101315.07
2022-11-28T06:04:48.831Z,101310.86
2022-11-28T06:14:51.891Z,101306.36
2022-11-28T06:24:55.031Z,101305.94
2022-11-28T06:34:58.159Z,101308.46
2022-11-28T06:45:02.218Z,101318.10
2022-11-28T06:55:05.763Z,101315.70
2022-11-28T07:05:09.054Z,101322.53
2022-11-28T07:15:12.530Z,101315.77
2022-11-28T07:25:16.179Z,101310.80
2022-11-28T07:35:19.370Z,101305.34
2022-11-28T07:45:22.978Z,101309.20
2022-11-28T07:55:26.153Z,101309.09
2022-11-28T08:05:29.277Z,101310.23
2022-11-28T08:15:32.515Z,101314.54
2022-11-28T08:25:35.607Z,101310.45
2022-11-28T08:35:40.058Z,101311.58
2022-11-28T08:45:44.729Z,101301.45
2022-11-28T08:55:47.908Z,101303.49
2022-11-28T09:05:51.284Z,101299.41
2022-11-28T09:15:55.557Z,101288.93
2022-11-28T09:25:58.667Z,101282.03
2022-11-28T09:36:06.709Z,101273.38
2022-11-28T09:46:18.700Z,101272.55
2022-11-28T09:56:22.637Z,101262.09
2022-11-28T10:06:31.890Z,101253.54
2022-11-28T10:16:47.459Z,101241.75
2022-11-28T10:26:59.601Z,101234.27
2022-11-28T10:37:20.052Z,101234.58
2022-11-28T10:47:39.446Z,101220.48
2022-11-28T10:58:08.800Z,101214.25
2022-11-28T11:08:16.170Z,101205.66
2022-11-28T11:18:28.881Z,101204.98
2022-11-28T11:28:31.901Z,101206.15
2022-11-28T11:38:38.076Z,101214.64
2022-11-28T11:48:47.780Z,101216.23
2022-11-28T11:58:54.661Z,101215.30
2022-11-28T12:09:25.273Z,101216.29
2022-11-28T12:19:37.541Z,101216.95
2022-11-28T12:30:29.285Z,101211.88
2022-11-28T12:40:38.448Z,101205.56
2022-11-28T12:50:52.702Z,101202.37
2022-11-28T13:01:03.475Z,101205.79
2022-11-28T13:11:19.788Z,101197.05
2022-11-28T13:21:40.060Z,101197.94
2022-11-28T13:31:51.344Z,101198.09
2022-11-28T13:42:36.007Z,101199.42
2022-11-28T13:52:29.531Z,101193.73
2022-11-28T14:02:38.708Z,101184.04
2022-11-28T14:12:51.808Z,101184.69
2022-11-28T14:23:49.519Z,101184.77
2022-11-28T14:34:10.547Z,101175.58
2022-11-28T14:44:47.750Z,101172.83
2022-11-28T14:54:53.138Z,101167.30
2022-11-28T15:05:13.921Z,101169.62
2022-11-28T15:15:20.572Z,101168.52
2022-11-28T15:25:26.616Z,101171.59
2022-11-28T15:35:30.847Z,101176.48
2022-11-28T15:45:36.006Z,101176.14
2022-11-28T15:55:39.189Z,101169.22
2022-11-28T16:05:43.843Z,101173.20
2022-11-28T16:15:51.663Z,101168.55
2022-11-28T16:26:04.259Z,101177.14
2022-11-28T16:36:34.533Z,101176.58
2022-11-28T16:46:54.088Z,101177.70
2022-11-28T16:57:19.186Z,101174.70
2022-11-28T17:07:24.319Z,101179.27
2022-11-28T17:17:27.900Z,101181.78
2022-11-28T17:27:30.957Z,101179.64
2022-11-28T17:37:34.102Z,101189.74
2022-11-28T17:47:37.206Z,101182.94
2022-11-28T17:57:40.310Z,101182.86
2022-11-28T18:07:43.559Z,101183.84
2022-11-28T18:17:48.591Z,101189.09
2022-11-28T18:27:51.961Z,101187.85
2022-11-28T18:37:54.985Z,101191.22
2022-11-28T18:48:00.410Z,101193.30
2022-11-28T18:58:04.145Z,101198.85
2022-11-28T19:08:07.407Z,101209.64
2022-11-28T19:18:10.680Z,101198.98
2022-11-28T19:28:14.317Z,101203.93
2022-11-28T19:38:17.810Z,101215.92
2022-11-28T19:48:21.527Z,101221.20
2022-11-28T19:58:25.790Z,101214.55
2022-11-28T20:08:29.101Z,101215.88
2022-11-28T20:18:33.709Z,101217.57
2022-11-28T20:28:38.526Z,101222.52
2022-11-28T20:38:41.912Z,101217.52
2022-11-28T20:48:45.793Z,101218.70
2022-11-28T20:58:49.292Z,101235.95
2022-11-28T21:08:52.558Z,101232.35
2022-11-28T21:18:57.426Z,101232.79
2022-11-28T21:29:06.214Z,101231.61
2022-11-28T21:39:15.563Z,101232.14
2022-11-28T21:49:18.878Z,101233.68
2022-11-28T21:59:22.470Z,101226.31
2022-11-28T22:09:25.755Z,101222.17
2022-11-28T22:19:29.408Z,101212.89
2022-11-28T22:29:32.837Z,101210.16
2022-11-28T22:39:36.199Z,101212.09
2022-11-28T22:49:39.457Z,101206.88
2022-11-28T22:59:43.631Z,101210.70
2022-11-28T23:09:46.841Z,101204.86
2022-11-28T23:19:50.140Z,101205.19
2022-11-28T23:29:53.440Z,101205.21
2022-11-28T23:39:56.773Z,101200.59
2022-11-28T23:49:59.938Z,101195.45
